sensor_id;sensor_type;location;lat;lon;timestamp;P1;durP1;ratioP1;P2;durP2;ratioP2
4971;SDS011;2501;51.214;6.768;2023-03-14T00:01:11;9.65;;;4.30;;
4971;SDS011;2501;51.214;6.768;2023-03-14T00:03:41;9.77;;;5.20;;
4971;SDS011;2501;51.214;6.768;2023-03-14T00:06:10;10.40;;;4.30;;
4971;SDS011;2501;51.214;6.768;2023-03-14T00:08:39;10.32;;;3.47;;
4971;SDS011;2501;51.214;6.768;2023-03-14T00:11:09;8.20;;;3.70;;
4971;SDS011;2501;51.214;6.768;2023-03-14T00:13:39;8.90;;;3.60;;
4971;SDS011;2501;51.214;6.768;2023-03-14T00:16:10;9.07;;;4.30;;
4971;SDS011;2501;51.214;6.768;2023-03-14T00:18:40;8.90;;;3.73;;
4971;SDS011;2501;51.214;6.768;2023-03-14T00:21:09;8.27;;;2.97;;
4971;SDS011;2501;51.214;6.768;2023-03-14T00:23:40;10.13;;;3.13;;
4971;SDS011;2501;51.214;6.768;2023-03-14T00:26:10;8.43;;;2.65;;
4971;SDS011;2501;51.214;6.768;2023-03-14T00:28:43;4.93;;;2.50;;
4971;SDS011;2501;51.214;6.768;2023-03-14T00:31:13;7.57;;;2.22;;
4971;SDS011;2501;51.214;6.768;2023-03-14T00:33:44;8.88;;;2.40;;
4971;SDS011;2501;51.214;6.768;2023-03-14T00:36:13;14.75;;;2.88;;
4971;SDS011;2501;51.214;6.768;2023-03-14T00:38:46;12.02;;;2.45;;
4971;SDS011;2501;51.214;6.768;2023-03-14T00:41:16;10.13;;;1.63;;
4971;SDS011;2501;51.214;6.768;2023-03-14T00:43:50;0.60;;;0.40;;
4971;SDS011;2501;51.214;6.768;2023-03-14T00:46:19;1.90;;;0.60;;
4971;SDS011;2501;51.214;6.768;2023-03-14T00:48:47;0.60;;;0.40;;
4971;SDS011;2501;51.214;6.768;2023-03-14T00:51:16;0.70;;;0.50;;
4971;SDS011;2501;51.214;6.768;2023-03-14T00:53:44;0.60;;;0.50;;
4971;SDS011;2501;51.214;6.768;2023-03-14T00:56:13;0.90;;;0.70;;
4971;SDS011;2501;51.214;6.768;2023-03-14T00:58:41;1.10;;;0.50;;
4971;SDS011;2501;51.214;6.768;2023-03-14T01:01:14;0.90;;;0.70;;
4971;SDS011;2501;51.214;6.768;2023-03-14T01:03:43;0.60;;;0.43;;
4971;SDS011;2501;51.214;6.768;2023-03-14T01:06:13;0.60;;;0.40;;
4971;SDS011;2501;51.214;6.768;2023-03-14T01:08:43;0.60;;;0.60;;
4971;SDS011;2501;51.214;6.768;2023-03-14T01:11:13;0.60;;;0.40;;
4971;SDS011;2501;51.214;6.768;2023-03-14T01:13:43;0.60;;;0.40;;
4971;SDS011;2501;51.214;6.768;2023-03-14T01:16:14;1.20;;;1.10;;
4971;SDS011;2501;51.214;6.768;2023-03-14T01:18:44;1.20;;;0.80;;
4971;SDS011;2501;51.214;6.768;2023-03-14T01:21:14;0.60;;;0.40;;
4971;SDS011;2501;51.214;6.768;2023-03-14T01:23:44;0.60;;;0.40;;
4971;SDS011;2501;51.214;6.768;2023-03-14T01:26:15;1.10;;;0.50;;
4971;SDS011;2501;51.214;6.768;2023-03-14T01:28:45;1.90;;;1.40;;
4971;SDS011;2501;51.214;6.768;2023-03-14T01:31:17;0.60;;;0.40;;
4971;SDS011;2501;51.214;6.768;2023-03-14T01:33:46;3.60;;;0.60;;
4971;SDS011;2501;51.214;6.768;2023-03-14T01:36:15;0.90;;;0.80;;
4971;SDS011;2501;51.214;6.768;2023-03-14T01:38:43;1.40;;;0.80;;
4971;SDS011;2501;51.214;6.768;2023-03-14T01:41:14;1.25;;;0.60;;
4971;SDS011;2501;51.214;6.768;2023-03-14T01:43:44;0.70;;;0.50;;
4971;SDS011;2501;51.214;6.768;2023-03-14T01:46:20;0.60;;;0.50;;
4971;SDS011;2501;51.214;6.768;2023-03-14T01:48:54;0.60;;;0.40;;
4971;SDS011;2501;51.214;6.768;2023-03-14T01:51:29;0.60;;;0.40;;
4971;SDS011;2501;51.214;6.768;2023-03-14T01:54:02;0.60;;;0.40;;
4971;SDS011;2501;51.214;6.768;2023-03-14T01:56:35;0.60;;;0.40;;
4971;SDS011;2501;51.214;6.768;2023-03-14T01:59:06;0.60;;;0.40;;
4971;SDS011;2501;51.214;6.768;2023-03-14T02:01:38;0.60;;;0.40;;
4971;SDS011;2501;51.214;6.768;2023-03-14T02:04:10;1.00;;;0.60;;
4971;SDS011;2501;51.214;6.768;2023-03-14T02:06:45;0.60;;;0.50;;
4971;SDS011;2501;51.214;6.768;2023-03-14T02:09:17;0.60;;;0.40;;
4971;SDS011;2501;51.214;6.768;2023-03-14T02:11:46;0.60;;;0.60;;
4971;SDS011;2501;51.214;6.768;2023-03-14T02:14:21;2.30;;;0.90;;
4971;SDS011;2501;51.214;6.768;2023-03-14T02:16:59;0.60;;;0.40;;
4971;SDS011;2501;51.214;6.768;2023-03-14T02:19:35;7.00;;;0.75;;
4971;SDS011;2501;51.214;6.768;2023-03-14T02:22:15;0.60;;;0.40;;
4971;SDS011;2501;51.214;6.768;2023-03-14T02:24:46;1.10;;;0.80;;
4971;SDS011;2501;51.214;6.768;2023-03-14T02:27:26;0.60;;;0.40;;
4971;SDS011;2501;51.214;6.768;2023-03-14T02:29:56;1.10;;;0.50;;
4971;SDS011;2501;51.214;6.768;2023-03-14T02:32:28;1.30;;;1.10;;
4971;SDS011;2501;51.214;6.768;2023-03-14T02:35:00;4.47;;;1.00;;
4971;SDS011;2501;51.214;6.768;2023-03-14T02:37:32;5.18;;;1.55;;
4971;SDS011;2501;51.214;6.768;2023-03-14T02:40:05;9.02;;;2.25;;
4971;SDS011;2501;51.214;6.768;2023-03-14T02:42:36;6.25;;;1.40;;
4971;SDS011;2501;51.214;6.768;2023-03-14T02:48:01;4.35;;;1.20;;
4971;SDS011;2501;51.214;6.768;2023-03-14T02:50:34;8.15;;;2.30;;
4971;SDS011;2501;51.214;6.768;2023-03-14T02:53:02;8.88;;;2.30;;
4971;SDS011;2501;51.214;6.768;2023-03-14T02:55:31;6.83;;;1.97;;
4971;SDS011;2501;51.214;6.768;2023-03-14T02:58:02;4.60;;;1.90;;
4971;SDS011;2501;51.214;6.768;2023-03-14T03:00:30;9.43;;;2.10;;
4971;SDS011;2501;51.214;6.768;2023-03-14T03:02:59;6.47;;;2.20;;
4971;SDS011;2501;51.214;6.768;2023-03-14T03:05:27;10.73;;;2.60;;
4971;SDS011;2501;51.214;6.768;2023-03-14T03:07:56;5.85;;;1.80;;
4971;SDS011;2501;51.214;6.768;2023-03-14T03:10:25;9.75;;;2.20;;
4971;SDS011;2501;51.214;6.768;2023-03-14T03:12:54;10.63;;;2.45;;
4971;SDS011;2501;51.214;6.768;2023-03-14T03:15:25;9.52;;;2.30;;
4971;SDS011;2501;51.214;6.768;2023-03-14T03:17:54;10.10;;;2.60;;
4971;SDS011;2501;51.214;6.768;2023-03-14T03:20:23;9.90;;;2.08;;
4971;SDS011;2501;51.214;6.768;2023-03-14T03:22:51;8.93;;;2.15;;
4971;SDS011;2501;51.214;6.768;2023-03-14T03:25:20;10.50;;;1.95;;
4971;SDS011;2501;51.214;6.768;2023-03-14T03:27:48;10.10;;;2.22;;
4971;SDS011;2501;51.214;6.768;2023-03-14T03:30:17;11.02;;;2.40;;
4971;SDS011;2501;51.214;6.768;2023-03-14T03:32:48;8.07;;;2.10;;
4971;SDS011;2501;51.214;6.768;2023-03-14T03:35:17;12.20;;;2.20;;
4971;SDS011;2501;51.214;6.768;2023-03-14T03:37:45;7.45;;;2.25;;
4971;SDS011;2501;51.214;6.768;2023-03-14T03:40:14;10.18;;;3.00;;
4971;SDS011;2501;51.214;6.768;2023-03-14T03:42:42;11.05;;;2.20;;
4971;SDS011;2501;51.214;6.768;2023-03-14T03:45:11;11.68;;;2.50;;
4971;SDS011;2501;51.214;6.768;2023-03-14T03:47:39;9.75;;;2.15;;
4971;SDS011;2501;51.214;6.768;2023-03-14T03:50:10;13.82;;;2.63;;
4971;SDS011;2501;51.214;6.768;2023-03-14T03:52:39;7.72;;;2.08;;
4971;SDS011;2501;51.214;6.768;2023-03-14T03:55:08;8.60;;;2.08;;
4971;SDS011;2501;51.214;6.768;2023-03-14T03:57:36;9.50;;;2.42;;
4971;SDS011;2501;51.214;6.768;2023-03-14T04:00:05;10.50;;;2.60;;
4971;SDS011;2501;51.214;6.768;2023-03-14T04:02:37;10.25;;;2.70;;
4971;SDS011;2501;51.214;6.768;2023-03-14T04:05:05;8.65;;;2.60;;
4971;SDS011;2501;51.214;6.768;2023-03-14T04:07:37;14.02;;;2.33;;
4971;SDS011;2501;51.214;6.768;2023-03-14T04:10:05;12.43;;;3.10;;
4971;SDS011;2501;51.214;6.768;2023-03-14T04:12:34;9.35;;;2.40;;
4971;SDS011;2501;51.214;6.768;2023-03-14T04:15:03;11.55;;;2.30;;
4971;SDS011;2501;51.214;6.768;2023-03-14T04:17:32;11.40;;;2.40;;
4971;SDS011;2501;51.214;6.768;2023-03-14T04:20:00;16.13;;;2.80;;
4971;SDS011;2501;51.214;6.768;2023-03-14T04:22:29;10.68;;;2.30;;
4971;SDS011;2501;51.214;6.768;2023-03-14T04:25:00;11.07;;;3.10;;
4971;SDS011;2501;51.214;6.768;2023-03-14T04:27:29;11.02;;;2.72;;
4971;SDS011;2501;51.214;6.768;2023-03-14T04:29:58;13.30;;;2.50;;
4971;SDS011;2501;51.214;6.768;2023-03-14T04:32:26;8.25;;;2.45;;
4971;SDS011;2501;51.214;6.768;2023-03-14T04:34:55;15.50;;;2.40;;
4971;SDS011;2501;51.214;6.768;2023-03-14T04:37:23;11.20;;;3.00;;
4971;SDS011;2501;51.214;6.768;2023-03-14T04:39:51;16.95;;;3.40;;
4971;SDS011;2501;51.214;6.768;2023-03-14T04:42:22;15.35;;;3.85;;
4971;SDS011;2501;51.214;6.768;2023-03-14T04:44:51;8.30;;;2.23;;
4971;SDS011;2501;51.214;6.768;2023-03-14T04:47:19;10.65;;;2.50;;
4971;SDS011;2501;51.214;6.768;2023-03-14T04:49:47;12.82;;;2.70;;
4971;SDS011;2501;51.214;6.768;2023-03-14T04:52:16;10.07;;;2.90;;
4971;SDS011;2501;51.214;6.768;2023-03-14T04:54:44;10.07;;;2.20;;
4971;SDS011;2501;51.214;6.768;2023-03-14T04:57:13;11.27;;;2.75;;
4971;SDS011;2501;51.214;6.768;2023-03-14T04:59:44;9.23;;;2.40;;
4971;SDS011;2501;51.214;6.768;2023-03-14T05:02:12;7.95;;;2.60;;
4971;SDS011;2501;51.214;6.768;2023-03-14T05:04:41;8.15;;;2.38;;
4971;SDS011;2501;51.214;6.768;2023-03-14T05:07:09;10.48;;;2.55;;
4971;SDS011;2501;51.214;6.768;2023-03-14T05:09:37;46.50;;;7.70;;
4971;SDS011;2501;51.214;6.768;2023-03-14T05:12:06;125.30;;;21.63;;
4971;SDS011;2501;51.214;6.768;2023-03-14T05:14:34;75.53;;;11.23;;
4971;SDS011;2501;51.214;6.768;2023-03-14T05:17:07;43.30;;;6.68;;
4971;SDS011;2501;51.214;6.768;2023-03-14T05:19:35;38.90;;;5.20;;
4971;SDS011;2501;51.214;6.768;2023-03-14T05:22:04;26.53;;;4.40;;
4971;SDS011;2501;51.214;6.768;2023-03-14T05:24:32;4.78;;;1.50;;
4971;SDS011;2501;51.214;6.768;2023-03-14T05:27:01;4.45;;;1.05;;
4971;SDS011;2501;51.214;6.768;2023-03-14T05:29:29;1.63;;;1.00;;
4971;SDS011;2501;51.214;6.768;2023-03-14T05:31:58;1.90;;;0.70;;
4971;SDS011;2501;51.214;6.768;2023-03-14T05:34:29;2.47;;;1.00;;
4971;SDS011;2501;51.214;6.768;2023-03-14T05:36:57;1.98;;;0.77;;
4971;SDS011;2501;51.214;6.768;2023-03-14T05:39:25;2.30;;;0.80;;
4971;SDS011;2501;51.214;6.768;2023-03-14T05:41:54;1.20;;;0.77;;
4971;SDS011;2501;51.214;6.768;2023-03-14T05:44:22;4.80;;;1.00;;
4971;SDS011;2501;51.214;6.768;2023-03-14T05:46:51;3.28;;;0.90;;
4971;SDS011;2501;51.214;6.768;2023-03-14T05:49:19;2.33;;;1.00;;
4971;SDS011;2501;51.214;6.768;2023-03-14T05:51:51;2.03;;;1.05;;
4971;SDS011;2501;51.214;6.768;2023-03-14T05:54:19;0.80;;;0.70;;
4971;SDS011;2501;51.214;6.768;2023-03-14T05:56:48;1.30;;;0.60;;
4971;SDS011;2501;51.214;6.768;2023-03-14T05:59:16;1.00;;;0.70;;
4971;SDS011;2501;51.214;6.768;2023-03-14T06:01:45;1.30;;;0.70;;
4971;SDS011;2501;51.214;6.768;2023-03-14T06:04:13;1.20;;;0.60;;
4971;SDS011;2501;51.214;6.768;2023-03-14T06:06:42;2.60;;;0.80;;
4971;SDS011;2501;51.214;6.768;2023-03-14T06:09:13;0.70;;;0.60;;
4971;SDS011;2501;51.214;6.768;2023-03-14T06:11:41;1.30;;;0.65;;
4971;SDS011;2501;51.214;6.768;2023-03-14T06:14:11;1.40;;;0.60;;
4971;SDS011;2501;51.214;6.768;2023-03-14T06:16:39;1.10;;;0.70;;
4971;SDS011;2501;51.214;6.768;2023-03-14T06:19:07;1.70;;;0.50;;
4971;SDS011;2501;51.214;6.768;2023-03-14T06:21:37;1.40;;;0.60;;
4971;SDS011;2501;51.214;6.768;2023-03-14T06:24:05;1.40;;;0.60;;
4971;SDS011;2501;51.214;6.768;2023-03-14T06:26:37;0.90;;;0.50;;
4971;SDS011;2501;51.214;6.768;2023-03-14T06:29:05;2.10;;;0.45;;
4971;SDS011;2501;51.214;6.768;2023-03-14T06:31:34;1.50;;;1.10;;
4971;SDS011;2501;51.214;6.768;2023-03-14T06:34:02;0.70;;;0.70;;
4971;SDS011;2501;51.214;6.768;2023-03-14T06:36:31;1.30;;;0.88;;
4971;SDS011;2501;51.214;6.768;2023-03-14T06:38:59;1.00;;;0.70;;
4971;SDS011;2501;51.214;6.768;2023-03-14T06:41:28;2.10;;;0.60;;
4971;SDS011;2501;51.214;6.768;2023-03-14T06:44:00;2.50;;;0.90;;
4971;SDS011;2501;51.214;6.768;2023-03-14T06:46:28;0.65;;;0.60;;
4971;SDS011;2501;51.214;6.768;2023-03-14T06:48:57;1.70;;;0.60;;
4971;SDS011;2501;51.214;6.768;2023-03-14T06:51:25;1.20;;;0.50;;
4971;SDS011;2501;51.214;6.768;2023-03-14T06:53:54;0.70;;;0.50;;
4971;SDS011;2501;51.214;6.768;2023-03-14T06:56:22;1.70;;;0.70;;
4971;SDS011;2501;51.214;6.768;2023-03-14T06:58:51;1.30;;;0.80;;
4971;SDS011;2501;51.214;6.768;2023-03-14T07:01:24;2.00;;;1.80;;
4971;SDS011;2501;51.214;6.768;2023-03-14T07:03:54;3.40;;;0.82;;
4971;SDS011;2501;51.214;6.768;2023-03-14T07:06:23;0.77;;;0.70;;
4971;SDS011;2501;51.214;6.768;2023-03-14T07:08:54;2.78;;;1.10;;
4971;SDS011;2501;51.214;6.768;2023-03-14T07:11:23;2.00;;;0.70;;
4971;SDS011;2501;51.214;6.768;2023-03-14T07:13:52;2.72;;;0.95;;
4971;SDS011;2501;51.214;6.768;2023-03-14T07:16:23;1.20;;;0.70;;
4971;SDS011;2501;51.214;6.768;2023-03-14T07:18:53;2.80;;;1.70;;
4971;SDS011;2501;51.214;6.768;2023-03-14T07:21:22;1.60;;;1.20;;
4971;SDS011;2501;51.214;6.768;2023-03-14T07:23:51;2.50;;;1.10;;
4971;SDS011;2501;51.214;6.768;2023-03-14T07:26:19;5.20;;;1.00;;
4971;SDS011;2501;51.214;6.768;2023-03-14T07:28:48;3.10;;;1.10;;
4971;SDS011;2501;51.214;6.768;2023-03-14T07:31:16;1.95;;;0.93;;
4971;SDS011;2501;51.214;6.768;2023-03-14T07:33:47;0.88;;;0.70;;
4971;SDS011;2501;51.214;6.768;2023-03-14T07:36:16;1.50;;;0.80;;
4971;SDS011;2501;51.214;6.768;2023-03-14T07:38:45;2.50;;;0.80;;
4971;SDS011;2501;51.214;6.768;2023-03-14T07:41:13;1.73;;;0.80;;
4971;SDS011;2501;51.214;6.768;2023-03-14T07:43:42;1.23;;;1.13;;
4971;SDS011;2501;51.214;6.768;2023-03-14T07:46:10;1.38;;;0.90;;
4971;SDS011;2501;51.214;6.768;2023-03-14T07:48:39;2.22;;;0.70;;
4971;SDS011;2501;51.214;6.768;2023-03-14T07:51:10;1.03;;;0.90;;
4971;SDS011;2501;51.214;6.768;2023-03-14T07:53:39;3.10;;;0.80;;
4971;SDS011;2501;51.214;6.768;2023-03-14T07:56:08;2.90;;;0.98;;
4971;SDS011;2501;51.214;6.768;2023-03-14T07:58:37;7.68;;;1.50;;
4971;SDS011;2501;51.214;6.768;2023-03-14T08:01:05;88.63;;;15.38;;
4971;SDS011;2501;51.214;6.768;2023-03-14T08:03:34;6.47;;;1.97;;
4971;SDS011;2501;51.214;6.768;2023-03-14T08:06:02;3.20;;;0.90;;
4971;SDS011;2501;51.214;6.768;2023-03-14T08:08:34;1.30;;;0.90;;
4971;SDS011;2501;51.214;6.768;2023-03-14T08:11:03;0.95;;;0.82;;
4971;SDS011;2501;51.214;6.768;2023-03-14T08:13:33;1.48;;;1.02;;
4971;SDS011;2501;51.214;6.768;2023-03-14T08:16:03;4.28;;;1.40;;
4971;SDS011;2501;51.214;6.768;2023-03-14T08:18:32;4.13;;;1.52;;
4971;SDS011;2501;51.214;6.768;2023-03-14T08:21:01;0.95;;;0.80;;
4971;SDS011;2501;51.214;6.768;2023-03-14T08:23:30;3.75;;;1.20;;
4971;SDS011;2501;51.214;6.768;2023-03-14T08:26:01;1.77;;;1.30;;
4971;SDS011;2501;51.214;6.768;2023-03-14T08:28:30;2.10;;;1.90;;
4971;SDS011;2501;51.214;6.768;2023-03-14T08:30:59;1.00;;;0.90;;
4971;SDS011;2501;51.214;6.768;2023-03-14T08:33:28;1.80;;;0.80;;
4971;SDS011;2501;51.214;6.768;2023-03-14T08:35:58;1.52;;;1.42;;
4971;SDS011;2501;51.214;6.768;2023-03-14T08:38:28;1.52;;;1.42;;
4971;SDS011;2501;51.214;6.768;2023-03-14T08:40:57;5.65;;;1.40;;
4971;SDS011;2501;51.214;6.768;2023-03-14T08:43:29;4.10;;;1.38;;
4971;SDS011;2501;51.214;6.768;2023-03-14T08:45:57;3.45;;;1.60;;
4971;SDS011;2501;51.214;6.768;2023-03-14T08:48:27;1.90;;;1.20;;
4971;SDS011;2501;51.214;6.768;2023-03-14T08:50:56;10.02;;;1.30;;
4971;SDS011;2501;51.214;6.768;2023-03-14T08:53:31;7.53;;;1.48;;
4971;SDS011;2501;51.214;6.768;2023-03-14T08:56:00;1.70;;;1.60;;
4971;SDS011;2501;51.214;6.768;2023-03-14T08:58:33;3.70;;;1.10;;
4971;SDS011;2501;51.214;6.768;2023-03-14T09:01:03;1.20;;;1.10;;
4971;SDS011;2501;51.214;6.768;2023-03-14T09:03:32;2.50;;;1.10;;
4971;SDS011;2501;51.214;6.768;2023-03-14T09:06:03;1.60;;;1.50;;
4971;SDS011;2501;51.214;6.768;2023-03-14T09:08:33;2.30;;;2.10;;
4971;SDS011;2501;51.214;6.768;2023-03-14T09:11:02;1.83;;;1.35;;
4971;SDS011;2501;51.214;6.768;2023-03-14T09:13:33;2.80;;;1.33;;
4971;SDS011;2501;51.214;6.768;2023-03-14T09:16:02;3.45;;;1.33;;
4971;SDS011;2501;51.214;6.768;2023-03-14T09:18:31;1.97;;;1.47;;
4971;SDS011;2501;51.214;6.768;2023-03-14T09:21:00;1.10;;;0.90;;
4971;SDS011;2501;51.214;6.768;2023-03-14T09:23:31;1.10;;;1.00;;
4971;SDS011;2501;51.214;6.768;2023-03-14T09:26:01;4.20;;;0.70;;
4971;SDS011;2501;51.214;6.768;2023-03-14T09:28:29;1.00;;;0.50;;
4971;SDS011;2501;51.214;6.768;2023-03-14T09:31:05;0.80;;;0.50;;
4971;SDS011;2501;51.214;6.768;2023-03-14T09:33:34;2.25;;;0.60;;
4971;SDS011;2501;51.214;6.768;2023-03-14T09:36:03;2.72;;;0.60;;
4971;SDS011;2501;51.214;6.768;2023-03-14T09:38:32;0.93;;;0.65;;
4971;SDS011;2501;51.214;6.768;2023-03-14T09:41:02;1.30;;;0.70;;
4971;SDS011;2501;51.214;6.768;2023-03-14T09:43:42;1.20;;;0.70;;
4971;SDS011;2501;51.214;6.768;2023-03-14T09:46:16;0.90;;;0.90;;
4971;SDS011;2501;51.214;6.768;2023-03-14T09:48:45;1.55;;;0.70;;
4971;SDS011;2501;51.214;6.768;2023-03-14T09:51:16;1.98;;;0.88;;
4971;SDS011;2501;51.214;6.768;2023-03-14T09:53:47;3.10;;;1.00;;
4971;SDS011;2501;51.214;6.768;2023-03-14T09:56:23;0.90;;;0.90;;
4971;SDS011;2501;51.214;6.768;2023-03-14T09:58:57;2.10;;;0.93;;
4971;SDS011;2501;51.214;6.768;2023-03-14T10:01:30;2.20;;;1.10;;
4971;SDS011;2501;51.214;6.768;2023-03-14T10:04:01;0.90;;;0.90;;
4971;SDS011;2501;51.214;6.768;2023-03-14T10:06:34;1.27;;;1.10;;
4971;SDS011;2501;51.214;6.768;2023-03-14T10:09:02;2.22;;;0.80;;
4971;SDS011;2501;51.214;6.768;2023-03-14T10:11:31;2.20;;;0.90;;
4971;SDS011;2501;51.214;6.768;2023-03-14T10:14:09;2.60;;;1.10;;
4971;SDS011;2501;51.214;6.768;2023-03-14T10:16:42;0.90;;;0.90;;
4971;SDS011;2501;51.214;6.768;2023-03-14T10:19:13;0.80;;;0.80;;
4971;SDS011;2501;51.214;6.768;2023-03-14T10:21:43;2.70;;;1.40;;
4971;SDS011;2501;51.214;6.768;2023-03-14T10:24:19;1.27;;;1.17;;
4971;SDS011;2501;51.214;6.768;2023-03-14T10:26:49;1.73;;;1.33;;
4971;SDS011;2501;51.214;6.768;2023-03-14T10:29:23;1.77;;;1.10;;
4971;SDS011;2501;51.214;6.768;2023-03-14T10:31:52;4.68;;;1.27;;
4971;SDS011;2501;51.214;6.768;2023-03-14T10:34:24;1.40;;;1.30;;
4971;SDS011;2501;51.214;6.768;2023-03-14T10:36:55;2.50;;;1.40;;
4971;SDS011;2501;51.214;6.768;2023-03-14T10:39:27;4.10;;;1.10;;
4971;SDS011;2501;51.214;6.768;2023-03-14T10:42:03;1.70;;;1.50;;
4971;SDS011;2501;51.214;6.768;2023-03-14T10:44:37;3.65;;;1.10;;
4971;SDS011;2501;51.214;6.768;2023-03-14T10:47:12;1.60;;;1.30;;
4971;SDS011;2501;51.214;6.768;2023-03-14T10:49:45;1.60;;;1.47;;
4971;SDS011;2501;51.214;6.768;2023-03-14T10:52:17;1.95;;;1.75;;
4971;SDS011;2501;51.214;6.768;2023-03-14T10:54:53;3.17;;;1.60;;
4971;SDS011;2501;51.214;6.768;2023-03-14T10:57:25;1.47;;;1.47;;
4971;SDS011;2501;51.214;6.768;2023-03-14T10:59:56;3.30;;;1.67;;
4971;SDS011;2501;51.214;6.768;2023-03-14T11:02:28;2.20;;;1.90;;
4971;SDS011;2501;51.214;6.768;2023-03-14T11:05:14;4.43;;;1.83;;
4971;SDS011;2501;51.214;6.768;2023-03-14T11:07:51;3.75;;;1.40;;
4971;SDS011;2501;51.214;6.768;2023-03-14T11:10:23;2.50;;;1.40;;
4971;SDS011;2501;51.214;6.768;2023-03-14T11:12:56;3.70;;;1.50;;
4971;SDS011;2501;51.214;6.768;2023-03-14T11:15:38;4.50;;;1.70;;
4971;SDS011;2501;51.214;6.768;2023-03-14T11:21:20;4.47;;;1.88;;
4971;SDS011;2501;51.214;6.768;2023-03-14T11:24:00;2.80;;;1.70;;
4971;SDS011;2501;51.214;6.768;2023-03-14T11:26:41;5.03;;;1.80;;
4971;SDS011;2501;51.214;6.768;2023-03-14T11:29:18;0.90;;;0.80;;
4971;SDS011;2501;51.214;6.768;2023-03-14T11:31:52;3.10;;;1.50;;
4971;SDS011;2501;51.214;6.768;2023-03-14T11:34:27;3.70;;;1.70;;
4971;SDS011;2501;51.214;6.768;2023-03-14T11:37:01;2.40;;;1.20;;
4971;SDS011;2501;51.214;6.768;2023-03-14T11:39:35;3.97;;;1.30;;
4971;SDS011;2501;51.214;6.768;2023-03-14T11:42:07;3.42;;;1.25;;
4971;SDS011;2501;51.214;6.768;2023-03-14T11:44:42;1.40;;;1.20;;
4971;SDS011;2501;51.214;6.768;2023-03-14T11:47:17;3.22;;;1.10;;
4971;SDS011;2501;51.214;6.768;2023-03-14T11:49:53;4.20;;;1.20;;
4971;SDS011;2501;51.214;6.768;2023-03-14T11:52:28;5.30;;;1.30;;
4971;SDS011;2501;51.214;6.768;2023-03-14T11:55:00;2.67;;;1.10;;
4971;SDS011;2501;51.214;6.768;2023-03-14T11:57:33;3.87;;;1.20;;
4971;SDS011;2501;51.214;6.768;2023-03-14T12:00:04;4.63;;;1.48;;
4971;SDS011;2501;51.214;6.768;2023-03-14T12:02:50;6.05;;;1.30;;
4971;SDS011;2501;51.214;6.768;2023-03-14T12:05:32;3.15;;;0.90;;
4971;SDS011;2501;51.214;6.768;2023-03-14T12:08:19;1.48;;;1.00;;
4971;SDS011;2501;51.214;6.768;2023-03-14T12:11:00;6.47;;;1.20;;
4971;SDS011;2501;51.214;6.768;2023-03-14T12:13:32;5.07;;;1.10;;
4971;SDS011;2501;51.214;6.768;2023-03-14T12:16:04;4.40;;;1.00;;
4971;SDS011;2501;51.214;6.768;2023-03-14T12:18:38;3.08;;;1.20;;
4971;SDS011;2501;51.214;6.768;2023-03-14T12:21:08;4.68;;;1.98;;
4971;SDS011;2501;51.214;6.768;2023-03-14T12:23:40;4.10;;;1.10;;
4971;SDS011;2501;51.214;6.768;2023-03-14T12:26:15;5.28;;;1.33;;
4971;SDS011;2501;51.214;6.768;2023-03-14T12:28:49;6.40;;;1.30;;
4971;SDS011;2501;51.214;6.768;2023-03-14T12:36:59;6.57;;;1.20;;
4971;SDS011;2501;51.214;6.768;2023-03-14T12:39:36;5.57;;;1.20;;
4971;SDS011;2501;51.214;6.768;2023-03-14T12:42:11;5.50;;;1.00;;
4971;SDS011;2501;51.214;6.768;2023-03-14T12:44:43;4.82;;;1.20;;
4971;SDS011;2501;51.214;6.768;2023-03-14T12:50:18;8.02;;;1.52;;
4971;SDS011;2501;51.214;6.768;2023-03-14T12:52:58;7.22;;;1.70;;
4971;SDS011;2501;51.214;6.768;2023-03-14T12:55:44;5.57;;;1.80;;
4971;SDS011;2501;51.214;6.768;2023-03-14T12:58:20;4.87;;;1.20;;
4971;SDS011;2501;51.214;6.768;2023-03-14T13:00:56;5.80;;;1.30;;
4971;SDS011;2501;51.214;6.768;2023-03-14T13:03:36;2.83;;;1.10;;
4971;SDS011;2501;51.214;6.768;2023-03-14T13:06:10;8.73;;;2.13;;
4971;SDS011;2501;51.214;6.768;2023-03-14T13:08:40;3.15;;;0.98;;
4971;SDS011;2501;51.214;6.768;2023-03-14T13:11:10;9.80;;;1.27;;
4971;SDS011;2501;51.214;6.768;2023-03-14T13:13:41;8.20;;;1.40;;
4971;SDS011;2501;51.214;6.768;2023-03-14T13:16:15;8.10;;;1.40;;
4971;SDS011;2501;51.214;6.768;2023-03-14T13:18:46;12.20;;;2.10;;
4971;SDS011;2501;51.214;6.768;2023-03-14T13:21:20;8.77;;;1.67;;
4971;SDS011;2501;51.214;6.768;2023-03-14T13:23:56;16.00;;;2.60;;
4971;SDS011;2501;51.214;6.768;2023-03-14T13:26:32;19.90;;;3.03;;
4971;SDS011;2501;51.214;6.768;2023-03-14T13:29:08;11.33;;;2.77;;
4971;SDS011;2501;51.214;6.768;2023-03-14T13:31:38;11.70;;;2.33;;
4971;SDS011;2501;51.214;6.768;2023-03-14T13:34:12;12.85;;;2.20;;
4971;SDS011;2501;51.214;6.768;2023-03-14T13:36:43;14.45;;;3.00;;
4971;SDS011;2501;51.214;6.768;2023-03-14T13:39:16;20.08;;;3.60;;
4971;SDS011;2501;51.214;6.768;2023-03-14T13:41:47;19.67;;;2.95;;
4971;SDS011;2501;51.214;6.768;2023-03-14T13:44:17;22.88;;;3.20;;
4971;SDS011;2501;51.214;6.768;2023-03-14T13:46:49;14.90;;;2.45;;
4971;SDS011;2501;51.214;6.768;2023-03-14T13:49:19;18.00;;;3.10;;
4971;SDS011;2501;51.214;6.768;2023-03-14T13:51:54;16.15;;;2.50;;
4971;SDS011;2501;51.214;6.768;2023-03-14T13:54:23;14.82;;;2.42;;
4971;SDS011;2501;51.214;6.768;2023-03-14T13:56:59;17.00;;;2.90;;
4971;SDS011;2501;51.214;6.768;2023-03-14T13:59:29;12.48;;;2.65;;
4971;SDS011;2501;51.214;6.768;2023-03-14T14:02:00;18.90;;;3.45;;
4971;SDS011;2501;51.214;6.768;2023-03-14T14:04:33;14.73;;;2.90;;
4971;SDS011;2501;51.214;6.768;2023-03-14T14:07:08;15.88;;;3.10;;
4971;SDS011;2501;51.214;6.768;2023-03-14T14:09:41;17.70;;;3.17;;
4971;SDS011;2501;51.214;6.768;2023-03-14T14:12:13;15.70;;;3.30;;
4971;SDS011;2501;51.214;6.768;2023-03-14T14:14:47;18.83;;;3.50;;
4971;SDS011;2501;51.214;6.768;2023-03-14T14:17:19;13.07;;;2.70;;
4971;SDS011;2501;51.214;6.768;2023-03-14T14:19:52;14.57;;;3.27;;
4971;SDS011;2501;51.214;6.768;2023-03-14T14:22:25;20.57;;;3.17;;
4971;SDS011;2501;51.214;6.768;2023-03-14T14:24:55;18.45;;;2.70;;
4971;SDS011;2501;51.214;6.768;2023-03-14T14:27:26;12.40;;;2.83;;
4971;SDS011;2501;51.214;6.768;2023-03-14T14:29:58;18.73;;;2.90;;
4971;SDS011;2501;51.214;6.768;2023-03-14T14:32:34;17.15;;;2.28;;
4971;SDS011;2501;51.214;6.768;2023-03-14T14:35:04;16.85;;;2.25;;
4971;SDS011;2501;51.214;6.768;2023-03-14T14:37:40;21.42;;;2.55;;
4971;SDS011;2501;51.214;6.768;2023-03-14T14:40:15;12.20;;;2.30;;
4971;SDS011;2501;51.214;6.768;2023-03-14T14:42:46;16.10;;;2.60;;
4971;SDS011;2501;51.214;6.768;2023-03-14T14:45:16;13.45;;;3.10;;
4971;SDS011;2501;51.214;6.768;2023-03-14T14:47:49;16.30;;;2.42;;
4971;SDS011;2501;51.214;6.768;2023-03-14T14:50:21;15.32;;;2.60;;
4971;SDS011;2501;51.214;6.768;2023-03-14T14:52:59;12.93;;;1.98;;
4971;SDS011;2501;51.214;6.768;2023-03-14T14:55:31;14.70;;;2.22;;
4971;SDS011;2501;51.214;6.768;2023-03-14T14:58:11;16.48;;;2.50;;
4971;SDS011;2501;51.214;6.768;2023-03-14T15:00:49;19.10;;;2.20;;
4971;SDS011;2501;51.214;6.768;2023-03-14T15:03:20;9.25;;;1.70;;
4971;SDS011;2501;51.214;6.768;2023-03-14T15:05:48;8.32;;;2.08;;
4971;SDS011;2501;51.214;6.768;2023-03-14T15:08:19;7.90;;;2.13;;
4971;SDS011;2501;51.214;6.768;2023-03-14T15:10:48;11.00;;;1.58;;
4971;SDS011;2501;51.214;6.768;2023-03-14T15:13:17;10.52;;;1.75;;
4971;SDS011;2501;51.214;6.768;2023-03-14T15:15:45;10.75;;;2.15;;
4971;SDS011;2501;51.214;6.768;2023-03-14T15:18:15;8.35;;;2.00;;
4971;SDS011;2501;51.214;6.768;2023-03-14T15:20:45;13.17;;;1.90;;
4971;SDS011;2501;51.214;6.768;2023-03-14T15:23:14;9.32;;;2.00;;
4971;SDS011;2501;51.214;6.768;2023-03-14T15:25:47;9.40;;;2.08;;
4971;SDS011;2501;51.214;6.768;2023-03-14T15:28:16;10.75;;;1.90;;
4971;SDS011;2501;51.214;6.768;2023-03-14T15:30:47;8.75;;;1.33;;
4971;SDS011;2501;51.214;6.768;2023-03-14T15:33:16;11.57;;;2.08;;
4971;SDS011;2501;51.214;6.768;2023-03-14T15:35:46;13.20;;;2.28;;
4971;SDS011;2501;51.214;6.768;2023-03-14T15:38:16;6.28;;;1.58;;
4971;SDS011;2501;51.214;6.768;2023-03-14T15:40:51;12.63;;;2.65;;
4971;SDS011;2501;51.214;6.768;2023-03-14T15:43:22;6.72;;;1.70;;
4971;SDS011;2501;51.214;6.768;2023-03-14T15:45:51;7.03;;;1.90;;
4971;SDS011;2501;51.214;6.768;2023-03-14T15:48:22;8.55;;;1.70;;
4971;SDS011;2501;51.214;6.768;2023-03-14T15:50:50;9.45;;;1.63;;